Time;durP1;ratioP1;P1;durP2;ratioP2;P2;SDS_P1;SDS_P2;PMS_P1;PMS_P2;Temp;Humidity;BMP_temperature;BMP_pressure;BME280_temperature;BME280_humidity;BME280_pressure;Samples;Min_cycle;Max_cycle;Signal;HPM_P1;HPM_P2
2023/03/21 00:01:06;;;;;;;20.88;15.52;;;;;;;3.55;100.00;96020.09;4965427;28;20043;-63
2023/03/21 00:03:33;;;;;;;22.10;16.27;;;;;;;3.53;100.00;96014.97;4949507;28;20057;-63
2023/03/21 00:06:05;;;;;;;20.27;15.40;;;;;;;3.50;100.00;96016.94;4940211;28;20065;-63
2023/03/21 00:08:31;;;;;;;25.13;16.15;;;;;;;3.48;100.00;96010.97;4932837;28;20027;-63
2023/03/21 00:10:59;;;;;;;21.77;16.33;;;;;;;3.43;100.00;96013.84;4945882;28;20106;-63
2023/03/21 00:13:27;;;;;;;21.80;14.38;;;;;;;3.39;100.00;96015.78;4963045;28;20030;-63
2023/03/21 00:15:53;;;;;;;20.55;14.65;;;;;;;3.37;100.00;96020.22;4967299;28;20038;-63
2023/03/21 00:18:21;;;;;;;20.30;14.27;;;;;;;3.34;100.00;96015.22;4948896;28;20027;-63
2023/03/21 00:21:04;;;;;;;22.15;14.02;;;;;;;3.29;100.00;96014.66;4970776;28;20062;-63
2023/03/21 00:23:31;;;;;;;18.73;12.45;;;;;;;3.30;100.00;96019.75;4961665;28;20023;-63
2023/03/21 00:25:59;;;;;;;17.17;11.20;;;;;;;3.34;100.00;96014.38;4947905;28;20471;-63
2023/03/21 00:28:26;;;;;;;17.35;12.63;;;;;;;3.36;100.00;96005.53;4935556;28;20015;-63
2023/03/21 00:31:00;;;;;;;14.50;10.77;;;;;;;3.33;100.00;96016.13;4944616;28;20035;-62
2023/03/21 00:33:28;;;;;;;14.10;11.07;;;;;;;3.34;100.00;96011.78;4948056;28;20037;-63
2023/03/21 00:35:55;;;;;;;11.98;9.98;;;;;;;3.32;100.00;96011.88;4950142;28;20030;-64
2023/03/21 00:38:23;;;;;;;12.18;9.60;;;;;;;3.29;100.00;96014.66;4949788;28;20042;-63
2023/03/21 00:40:52;;;;;;;18.27;10.40;;;;;;;3.32;100.00;96004.06;4937676;28;20062;-63
2023/03/21 00:43:22;;;;;;;15.55;9.00;;;;;;;3.34;100.00;96002.19;4965596;28;20025;-63
2023/03/21 00:45:50;;;;;;;13.13;8.70;;;;;;;3.33;100.00;96002.31;4971813;28;20027;-63
2023/03/21 00:48:19;;;;;;;13.57;8.85;;;;;;;3.30;100.00;96003.31;4950024;28;20023;-63
2023/03/21 00:50:46;;;;;;;10.65;7.60;;;;;;;3.24;100.00;96003.69;4949582;28;20031;-63
2023/03/21 00:53:14;;;;;;;12.73;8.40;;;;;;;3.18;100.00;95999.66;4968507;28;20026;-63
2023/03/21 00:55:40;;;;;;;10.57;8.10;;;;;;;3.14;100.00;96004.19;4966133;28;20031;-63
2023/03/21 00:58:08;;;;;;;16.98;8.02;;;;;;;3.14;100.00;95995.56;4951433;28;20135;-63
2023/03/21 01:00:36;;;;;;;11.35;8.35;;;;;;;3.09;100.00;95993.22;4935555;28;20025;-63
2023/03/21 01:03:08;;;;;;;12.35;8.25;;;;;;;3.12;100.00;95995.63;4956771;28;20026;-62
2023/03/21 01:08:27;;;;;;;13.60;7.78;;;;;;;3.05;100.00;95990.88;4955641;28;20098;-63
2023/03/21 01:10:54;;;;;;;10.35;6.82;;;;;;;3.03;100.00;95990.97;4942680;28;20132;-63
2023/03/21 01:13:25;;;;;;;6.88;5.68;;;;;;;3.03;100.00;95993.56;4952399;28;20046;-63
2023/03/21 01:15:56;;;;;;;7.95;5.85;;;;;;;3.01;100.00;96001.47;4953225;28;20030;-62
2023/03/21 01:18:28;;;;;;;8.70;7.25;;;;;;;2.97;100.00;95994.75;4924090;28;20509;-63
2023/03/21 01:20:57;;;;;;;8.48;6.82;;;;;;;2.96;100.00;95989.63;4961900;28;20031;-63
2023/03/21 01:23:23;;;;;;;10.05;5.80;;;;;;;2.95;100.00;95987.97;4970173;28;20023;-64
2023/03/21 01:25:52;;;;;;;8.90;6.03;;;;;;;2.96;100.00;95989.63;4971862;28;20134;-63
2023/03/21 01:28:19;;;;;;;6.22;5.28;;;;;;;2.96;100.00;95987.03;4933564;28;20030;-63
2023/03/21 01:30:49;;;;;;;6.97;5.68;;;;;;;2.98;100.00;95991.22;4947503;28;20027;-62
2023/03/21 01:33:16;;;;;;;8.70;7.20;;;;;;;3.06;100.00;95988.19;4948249;28;20028;-63
2023/03/21 01:35:42;;;;;;;9.02;6.47;;;;;;;3.08;100.00;95988.94;4963159;28;20027;-63
2023/03/21 01:38:11;;;;;;;7.10;5.82;;;;;;;3.08;100.00;95983.75;4945982;28;20118;-63
2023/03/21 01:40:38;;;;;;;5.80;5.25;;;;;;;3.03;100.00;95983.19;4938225;28;20041;-63
2023/03/21 01:43:19;;;;;;;5.35;4.82;;;;;;;2.96;100.00;95982.69;4966331;28;20031;-63
2023/03/21 01:46:19;;;;;;;8.55;5.18;;;;;;;2.95;100.00;95980.16;4923548;28;20035;-63
2023/03/21 01:48:49;;;;;;;5.72;5.15;;;;;;;2.93;100.00;95972.47;4955562;28;20031;-62
2023/03/21 01:51:19;;;;;;;7.38;6.32;;;;;;;2.95;100.00;95968.00;4974383;28;20507;-63
2023/03/21 01:53:46;;;;;;;8.60;6.60;;;;;;;2.98;100.00;95964.38;4941971;28;20604;-62
2023/03/21 01:56:21;;;;;;;7.35;5.97;;;;;;;3.01;100.00;95970.25;4972819;28;20450;-62
2023/03/21 01:58:48;;;;;;;6.82;5.35;;;;;;;3.00;100.00;95960.75;4969265;28;20054;-63
2023/03/21 02:01:14;;;;;;;8.52;6.10;;;;;;;2.95;100.00;95959.34;4967046;28;20046;-62
2023/03/21 02:03:48;;;;;;;6.75;6.07;;;;;;;2.95;100.00;95951.53;4968198;28;20509;-63
2023/03/21 02:06:18;;;;;;;6.57;6.07;;;;;;;2.90;100.00;95956.19;4968443;28;20220;-63
2023/03/21 02:08:44;;;;;;;8.32;5.97;;;;;;;2.85;100.00;95952.09;4969710;28;20023;-62
2023/03/21 02:11:10;;;;;;;6.43;5.93;;;;;;;2.80;100.00;95950.66;4969695;28;20100;-63
2023/03/21 02:13:35;;;;;;;9.02;5.93;;;;;;;2.82;100.00;95948.81;4967556;28;20152;-62
2023/03/21 02:16:09;;;;;;;8.38;5.70;;;;;;;2.83;100.00;95946.13;4969797;28;20039;-62
2023/03/21 02:18:42;;;;;;;6.65;5.40;;;;;;;2.82;100.00;95948.81;4973994;28;20031;-63
2023/03/21 02:21:27;;;;;;;6.90;5.80;;;;;;;2.78;100.00;95948.16;4970989;28;20738;-63
2023/03/21 02:23:55;;;;;;;11.17;6.23;;;;;;;2.77;100.00;95948.25;4970818;28;20023;-63
2023/03/21 02:26:26;;;;;;;16.52;6.82;;;;;;;2.74;100.00;95946.66;4966707;28;20126;-63
2023/03/21 02:29:20;;;;;;;7.93;6.18;;;;;;;2.75;100.00;95939.69;4968587;28;20139;-63
2023/03/21 02:32:11;;;;;;;9.45;6.32;;;;;;;2.71;100.00;95933.81;4969436;28;20015;-63
2023/03/21 02:35:24;;;;;;;7.05;6.30;;;;;;;2.69;100.00;95935.69;4972790;28;20066;-63
2023/03/21 02:38:27;;;;;;;7.90;6.40;;;;;;;2.71;100.00;95931.22;4961094;28;20054;-63
2023/03/21 02:41:10;;;;;;;7.30;6.30;;;;;;;2.73;100.00;95934.56;4971630;28;20106;-62
2023/03/21 02:43:49;;;;;;;8.55;5.88;;;;;;;2.72;100.00;95930.28;4974359;28;20034;-63
2023/03/21 02:46:25;;;;;;;6.05;5.47;;;;;;;2.74;100.00;95933.66;4969938;28;20053;-62
2023/03/21 02:48:54;;;;;;;9.82;5.60;;;;;;;2.74;100.00;95931.03;4969355;28;20031;-63
2023/03/21 02:51:22;;;;;;;6.50;5.07;;;;;;;2.71;100.00;95916.47;4972408;28;20035;-63
2023/03/21 02:54:01;;;;;;;6.80;5.93;;;;;;;2.68;100.00;95921.84;4972136;28;20571;-62
2023/03/21 02:56:27;;;;;;;5.97;5.47;;;;;;;2.67;100.00;95920.19;4971732;28;20402;-63
2023/03/21 02:58:53;;;;;;;5.53;4.97;;;;;;;2.64;100.00;95924.72;4955623;28;20071;-62
2023/03/21 03:01:18;;;;;;;6.15;4.70;;;;;;;2.62;100.00;95916.16;4968647;28;20143;-62
2023/03/21 03:03:43;;;;;;;6.15;5.43;;;;;;;2.58;100.00;95921.53;4969967;28;20090;-63
2023/03/21 03:06:25;;;;;;;5.07;4.63;;;;;;;2.56;100.00;95915.59;4971693;28;20027;-62
2023/03/21 03:09:28;;;;;;;8.05;5.15;;;;;;;2.61;100.00;95911.88;4966563;28;20519;-63
2023/03/21 03:12:39;;;;;;;5.47;4.97;;;;;;;2.57;100.00;95914.66;4974266;28;20026;-63
2023/03/21 03:15:20;;;;;;;4.95;4.43;;;;;;;2.58;100.00;95916.34;4973867;28;20026;-63
2023/03/21 03:18:16;;;;;;;4.57;4.20;;;;;;;2.58;100.00;95910.28;4965903;28;20522;-63
2023/03/21 03:21:24;;;;;;;4.80;4.40;;;;;;;2.59;100.00;95911.97;4970456;28;20143;-62
2023/03/21 03:24:16;;;;;;;4.28;3.97;;;;;;;2.62;100.00;95905.75;4970832;28;20046;-63
2023/03/21 03:27:00;;;;;;;5.85;5.35;;;;;;;2.62;100.00;95908.38;4970770;28;20436;-63
2023/03/21 03:29:29;;;;;;;3.70;3.40;;;;;;;2.60;100.00;95907.63;4971538;28;20034;-62
2023/03/21 03:32:00;;;;;;;3.88;3.53;;;;;;;2.58;100.00;95918.09;4967027;28;20034;-62
2023/03/21 03:34:31;;;;;;;4.15;3.88;;;;;;;2.53;100.00;95913.16;4968557;28;20085;-62
2023/03/21 03:37:03;;;;;;;4.45;4.07;;;;;;;2.51;100.00;95915.00;4970401;28;20027;-63
2023/03/21 03:39:52;;;;;;;3.92;3.72;;;;;;;2.54;100.00;95916.59;4969677;28;20687;-62
2023/03/21 03:42:36;;;;;;;4.13;3.22;;;;;;;2.51;100.00;95920.19;4967961;28;20194;-63
2023/03/21 03:45:04;;;;;;;3.70;3.40;;;;;;;2.50;100.00;95918.53;4974762;28;20451;-62
2023/03/21 03:47:42;;;;;;;4.38;3.42;;;;;;;2.48;100.00;95920.38;4969971;28;20030;-63
2023/03/21 03:50:29;;;;;;;4.85;3.53;;;;;;;2.45;100.00;95924.94;4970437;28;20027;-62
2023/03/21 03:53:02;;;;;;;3.78;3.47;;;;;;;2.47;100.00;95917.88;4969389;28;20038;-62
2023/03/21 03:55:33;;;;;;;3.53;3.33;;;;;;;2.46;100.00;95926.59;4969669;28;20026;-62
2023/03/21 03:58:00;;;;;;;3.72;3.42;;;;;;;2.46;100.00;95918.81;4967285;28;20510;-62
2023/03/21 04:00:26;;;;;;;3.95;3.33;;;;;;;2.47;100.00;95929.09;4964371;28;20026;-63
2023/03/21 04:02:52;;;;;;;3.53;3.22;;;;;;;2.50;100.00;95917.69;4964328;28;20042;-62
2023/03/21 04:05:19;;;;;;;4.15;2.83;;;;;;;2.47;100.00;95913.50;4969799;28;20018;-62
2023/03/21 04:07:47;;;;;;;3.33;3.10;;;;;;;2.45;100.00;95922.31;4968013;28;20526;-63
2023/03/21 04:10:13;;;;;;;3.22;3.03;;;;;;;2.40;100.00;95922.56;4971267;28;20082;-62
2023/03/21 04:12:39;;;;;;;3.33;2.80;;;;;;;2.39;100.00;95926.09;4971758;28;20094;-63
2023/03/21 04:15:05;;;;;;;4.47;3.00;;;;;;;2.38;100.00;95920.03;4968386;28;20026;-62
2023/03/21 04:17:31;;;;;;;3.13;2.95;;;;;;;2.33;100.00;95922.06;4968151;28;20031;-63
2023/03/21 04:19:57;;;;;;;5.25;3.50;;;;;;;2.31;100.00;95923.06;4969109;28;20026;-62
2023/03/21 04:22:23;;;;;;;3.47;3.17;;;;;;;2.29;100.00;95924.00;4971732;28;20418;-63
2023/03/21 04:24:49;;;;;;;4.05;3.67;;;;;;;2.26;100.00;95923.34;4972605;28;20031;-63
2023/03/21 04:27:15;;;;;;;3.42;3.22;;;;;;;2.26;100.00;95921.56;4965969;28;20050;-62
2023/03/21 04:29:41;;;;;;;3.35;3.15;;;;;;;2.28;100.00;95917.13;4966996;28;20090;-63
2023/03/21 04:32:15;;;;;;;3.63;3.33;;;;;;;2.26;100.00;95920.75;4970656;28;20039;-63
2023/03/21 04:34:42;;;;;;;3.58;3.28;;;;;;;2.26;100.00;95918.16;4966797;28;20403;-63
2023/03/21 04:37:10;;;;;;;8.40;6.55;;;;;;;2.23;100.00;95928.72;4968887;28;20061;-62
2023/03/21 04:39:37;;;;;;;11.35;10.13;;;;;;;2.20;100.00;95929.72;4971784;28;20037;-62
2023/03/21 04:42:03;;;;;;;5.50;4.95;;;;;;;2.20;100.00;95926.25;4965791;28;20470;-62
2023/03/21 04:44:29;;;;;;;3.38;3.17;;;;;;;2.17;100.00;95926.44;4971058;28;20027;-62
2023/03/21 04:46:54;;;;;;;3.85;3.55;;;;;;;2.15;100.00;95916.97;4970145;28;20030;-63
2023/03/21 04:49:20;;;;;;;5.07;4.50;;;;;;;2.10;100.00;95926.78;4969796;28;20033;-63
2023/03/21 04:51:45;;;;;;;4.30;3.90;;;;;;;2.08;100.00;95922.56;4974862;28;20423;-63
2023/03/21 04:54:12;;;;;;;4.05;3.75;;;;;;;2.05;100.00;95922.75;4970493;28;20023;-62
2023/03/21 04:56:37;;;;;;;3.75;3.45;;;;;;;2.00;100.00;95915.22;4970289;28;20028;-63
2023/03/21 04:59:09;;;;;;;4.40;4.10;;;;;;;1.99;100.00;95914.38;4967842;28;20407;-63
2023/03/21 05:01:34;;;;;;;4.80;4.45;;;;;;;1.98;100.00;95906.66;4968082;28;20115;-63
2023/03/21 05:04:01;;;;;;;3.92;3.63;;;;;;;1.97;100.00;95907.59;4966768;28;20054;-63
2023/03/21 05:06:27;;;;;;;5.53;5.13;;;;;;;1.97;100.00;95913.63;4967240;28;20011;-64
2023/03/21 05:08:55;;;;;;;5.63;4.53;;;;;;;1.96;100.00;95906.75;4971429;28;20911;-63
2023/03/21 05:11:21;;;;;;;5.00;4.60;;;;;;;1.95;100.00;95907.69;4970870;28;20054;-63
2023/03/21 05:13:47;;;;;;;5.60;5.10;;;;;;;1.94;100.00;95910.34;4963171;28;20391;-63
2023/03/21 05:16:12;;;;;;;6.25;5.68;;;;;;;1.93;100.00;95913.88;4966593;28;20034;-63
2023/03/21 05:18:38;;;;;;;6.13;5.45;;;;;;;1.91;100.00;95913.97;4966473;28;20502;-62
2023/03/21 05:21:06;;;;;;;7.75;5.72;;;;;;;1.89;100.00;95913.22;4969928;28;20501;-63
2023/03/21 05:23:37;;;;;;;7.30;6.63;;;;;;;1.85;100.00;95915.13;4971171;28;20027;-63
2023/03/21 05:26:05;;;;;;;6.57;5.97;;;;;;;1.86;100.00;95918.56;4972395;28;20039;-63
2023/03/21 05:28:30;;;;;;;9.73;5.95;;;;;;;1.87;100.00;95925.41;4971358;28;20034;-63
2023/03/21 05:30:55;;;;;;;10.48;7.10;;;;;;;1.88;100.00;95921.94;4970510;28;20063;-63
2023/03/21 05:33:21;;;;;;;8.35;6.68;;;;;;;1.90;100.00;95916.63;4966015;28;20469;-62
2023/03/21 05:35:50;;;;;;;7.22;6.55;;;;;;;1.87;100.00;95922.81;4972299;28;20031;-62
2023/03/21 05:38:15;;;;;;;6.43;5.90;;;;;;;1.87;100.00;95925.41;4968630;28;20462;-62
2023/03/21 05:40:45;;;;;;;6.60;6.05;;;;;;;1.85;100.00;95925.53;4967634;28;20030;-63
2023/03/21 05:43:11;;;;;;;7.65;6.88;;;;;;;1.87;100.00;95933.22;4967369;28;20061;-63
2023/03/21 05:45:36;;;;;;;7.13;6.10;;;;;;;1.87;100.00;95933.22;4949661;28;20696;-63
2023/03/21 05:48:01;;;;;;;9.85;6.43;;;;;;;1.82;100.00;95933.47;4971490;28;20030;-63
2023/03/21 05:50:28;;;;;;;6.70;5.18;;;;;;;1.80;100.00;95930.13;4965667;28;20113;-63
2023/03/21 05:52:53;;;;;;;5.20;4.70;;;;;;;1.82;100.00;95937.81;4965082;28;20102;-62
2023/03/21 05:55:19;;;;;;;5.28;4.88;;;;;;;1.88;100.00;95936.66;4967092;28;20062;-63
2023/03/21 05:57:44;;;;;;;5.47;4.55;;;;;;;1.91;100.00;95939.94;4967715;28;20066;-63
2023/03/21 06:00:10;;;;;;;4.95;4.53;;;;;;;1.99;100.00;95949.91;4967563;28;20086;-63
2023/03/21 06:02:37;;;;;;;4.97;4.45;;;;;;;2.10;100.00;95942.38;4967975;28;20042;-63
2023/03/21 06:05:03;;;;;;;5.50;5.00;;;;;;;2.19;100.00;95954.00;4962562;28;20534;-63
2023/03/21 06:07:28;;;;;;;4.88;4.47;;;;;;;2.22;100.00;95961.63;4967517;28;20020;-63
2023/03/21 06:09:53;;;;;;;4.93;4.32;;;;;;;2.28;100.00;95960.47;4971207;28;20027;-63
2023/03/21 06:12:19;;;;;;;4.85;4.45;;;;;;;2.34;100.00;95970.53;4968494;28;20035;-64
2023/03/21 06:14:44;;;;;;;5.47;5.07;;;;;;;2.38;100.00;95966.81;4966788;28;20078;-63
2023/03/21 06:17:10;;;;;;;6.20;5.00;;;;;;;2.46;100.00;95963.81;4963794;28;20057;-63
2023/03/21 06:19:35;;;;;;;6.43;5.38;;;;;;;2.56;100.00;95972.78;4970933;28;20224;-63
2023/03/21 06:22:01;;;;;;;5.72;5.22;;;;;;;2.62;100.00;95974.19;4966239;28;20059;-63
2023/03/21 06:24:26;;;;;;;5.22;4.82;;;;;;;2.66;100.00;95969.66;4971596;28;20041;-63
2023/03/21 06:26:51;;;;;;;5.88;5.38;;;;;;;2.70;100.00;95972.00;4966011;28;20752;-63
2023/03/21 06:29:17;;;;;;;5.43;4.88;;;;;;;2.72;100.00;95974.50;4973708;28;20519;-63
2023/03/21 06:31:42;;;;;;;5.15;4.75;;;;;;;2.77;100.00;95963.84;4966647;28;20369;-63
2023/03/21 06:34:10;;;;;;;5.93;4.95;;;;;;;2.81;100.00;95974.00;4965238;28;20042;-63
2023/03/21 06:36:36;;;;;;;8.02;4.97;;;;;;;2.88;100.00;95978.84;4968173;28;20019;-64
2023/03/21 06:39:02;;;;;;;5.38;4.88;;;;;;;2.95;100.00;95972.34;4964567;28;20042;-63
2023/03/21 06:41:28;;;;;;;5.65;5.22;;;;;;;2.99;100.00;95973.88;4972066;28;20023;-63
2023/03/21 06:43:53;;;;;;;7.43;6.68;;;;;;;3.05;100.00;95973.50;4967809;28;20049;-64
2023/03/21 06:46:19;;;;;;;14.13;10.98;;;;;;;3.20;100.00;95970.94;4969003;28;20045;-64
2023/03/21 06:48:45;;;;;;;14.05;12.52;;;;;;;3.32;100.00;95972.00;4966151;28;20411;-64
2023/03/21 06:51:12;;;;;;;13.35;11.85;;;;;;;3.40;100.00;95969.78;4968848;28;20025;-65
2023/03/21 06:53:38;;;;;;;11.82;10.63;;;;;;;3.38;100.00;95967.25;4968501;28;20037;-64
2023/03/21 06:56:03;;;;;;;15.00;11.23;;;;;;;3.46;100.00;95968.56;4965011;28;20054;-64
2023/03/21 06:58:29;;;;;;;9.15;8.20;;;;;;;3.54;100.00;95956.78;4965237;28;20050;-64
2023/03/21 07:00:58;;;;;;;10.60;9.13;;;;;;;3.57;100.00;95960.94;4965696;28;20086;-64
2023/03/21 07:03:23;;;;;;;14.25;9.88;;;;;;;3.63;100.00;95954.53;4964410;28;20031;-64
2023/03/21 07:05:49;;;;;;;14.65;10.25;;;;;;;3.68;100.00;95961.16;4961185;28;20034;-65
2023/03/21 07:08:14;;;;;;;14.45;9.07;;;;;;;3.74;100.00;95952.09;4965692;28;20058;-64
2023/03/21 07:10:41;;;;;;;9.50;8.23;;;;;;;3.82;100.00;95949.03;4965236;28;20761;-65
2023/03/21 07:13:07;;;;;;;13.68;12.18;;;;;;;3.91;100.00;95947.66;4965834;28;20069;-65
2023/03/21 07:15:33;;;;;;;20.70;18.52;;;;;;;4.02;100.00;95942.63;4965274;28;20022;-66
2023/03/21 07:17:59;;;;;;;29.40;24.42;;;;;;;4.18;100.00;95939.88;4969180;28;20048;-65
2023/03/21 07:20:25;;;;;;;27.58;20.50;;;;;;;4.29;100.00;95945.25;4968141;28;20029;-65
2023/03/21 07:22:51;;;;;;;13.30;11.73;;;;;;;4.44;100.00;95948.69;4966160;28;20102;-65
2023/03/21 07:25:16;;;;;;;18.42;10.38;;;;;;;4.53;100.00;95947.25;4971754;28;20038;-65
2023/03/21 07:27:41;;;;;;;12.68;9.40;;;;;;;4.82;100.00;95948.88;4967252;28;20069;-65
2023/03/21 07:30:09;;;;;;;10.90;9.65;;;;;;;5.38;100.00;95950.47;4971442;28;20026;-64
2023/03/21 07:32:36;;;;;;;12.50;9.20;;;;;;;5.90;100.00;95953.06;4965692;28;20024;-65
2023/03/21 07:35:02;;;;;;;11.10;7.95;;;;;;;6.40;100.00;95948.66;4964779;28;20543;-65
2023/03/21 07:37:28;;;;;;;16.25;8.23;;;;;;;6.93;100.00;95952.75;4965258;28;20389;-65
2023/03/21 07:39:54;;;;;;;7.93;6.03;;;;;;;7.40;100.00;95955.38;4965419;28;20045;-65
2023/03/21 07:42:19;;;;;;;6.90;6.10;;;;;;;7.68;100.00;95961.16;4968817;28;20076;-65
2023/03/21 07:44:44;;;;;;;4.28;3.97;;;;;;;7.89;100.00;95963.09;4968183;28;20168;-64
2023/03/21 07:47:10;;;;;;;4.03;3.60;;;;;;;8.10;100.00;95954.50;4964149;28;20089;-65
2023/03/21 07:49:36;;;;;;;4.75;3.20;;;;;;;8.37;95.08;95953.28;4964679;28;20522;-65
2023/03/21 07:52:02;;;;;;;3.72;2.97;;;;;;;8.70;90.21;95959.44;4970553;28;20102;-65
2023/03/21 07:54:28;;;;;;;4.97;2.75;;;;;;;9.05;86.78;95961.00;4967840;28;20085;-65
2023/03/21 07:56:54;;;;;;;7.93;3.20;;;;;;;9.13;87.29;95958.56;4944923;28;20023;-65
2023/03/21 07:59:19;;;;;;;9.40;5.50;;;;;;;8.98;85.50;95962.47;4971290;28;20057;-65
2023/03/21 08:01:45;;;;;;;13.75;5.78;;;;;;;8.99;84.53;95967.56;4968140;28;20038;-66
2023/03/21 08:04:11;;;;;;;3.85;3.30;;;;;;;9.06;82.73;95965.28;4964687;28;20514;-65
2023/03/21 08:06:36;;;;;;;3.80;3.42;;;;;;;9.02;81.18;95963.88;4968540;28;20057;-65
2023/03/21 08:09:02;;;;;;;7.60;3.30;;;;;;;9.01;83.06;95964.84;4969377;28;20490;-65
2023/03/21 08:11:31;;;;;;;2.80;2.53;;;;;;;8.97;84.29;95964.25;4967590;28;20406;-65
2023/03/21 08:13:58;;;;;;;2.60;2.40;;;;;;;9.34;82.74;95963.00;4967894;28;20035;-65
2023/03/21 08:16:23;;;;;;;2.67;2.40;;;;;;;9.30;82.18;95956.34;4971863;28;20463;-65
2023/03/21 08:18:49;;;;;;;6.22;3.30;;;;;;;9.31;80.23;95964.09;4950922;28;20039;-65
2023/03/21 08:21:14;;;;;;;2.95;2.38;;;;;;;9.40;79.87;95962.50;4969074;28;20534;-65
2023/03/21 08:23:40;;;;;;;3.85;2.60;;;;;;;9.59;78.18;95963.56;4969491;28;20044;-66
2023/03/21 08:26:06;;;;;;;2.10;2.00;;;;;;;9.92;77.52;95963.47;4963911;28;20030;-66
2023/03/21 08:28:32;;;;;;;4.47;1.88;;;;;;;10.27;74.72;95962.25;4968601;28;20035;-66
2023/03/21 08:30:57;;;;;;;2.08;1.90;;;;;;;10.49;72.43;95965.66;4970487;28;20041;-66
2023/03/21 08:33:23;;;;;;;1.95;1.70;;;;;;;10.50;72.35;95962.06;4962302;28;20071;-66
2023/03/21 08:35:48;;;;;;;1.30;1.30;;;;;;;10.62;70.31;95961.00;4968866;28;20315;-66
2023/03/21 08:38:14;;;;;;;1.88;1.77;;;;;;;10.79;68.26;95956.84;4966624;28;20092;-66
2023/03/21 08:40:40;;;;;;;1.67;1.35;;;;;;;11.15;66.93;95962.41;4961352;28;20027;-66
2023/03/21 08:43:06;;;;;;;3.85;3.40;;;;;;;11.38;66.47;95962.13;4964923;28;20042;-66
2023/03/21 08:45:31;;;;;;;10.57;6.80;;;;;;;11.65;64.29;95960.56;4967928;28;20026;-67
2023/03/21 08:47:57;;;;;;;2.30;2.10;;;;;;;11.57;64.73;95955.16;4966171;28;20199;-66
2023/03/21 08:50:26;;;;;;;1.80;1.70;;;;;;;11.79;64.51;95947.88;4965443;28;20090;-66
2023/03/21 08:52:52;;;;;;;4.85;4.43;;;;;;;11.99;61.87;95952.13;4962695;28;20035;-66
2023/03/21 08:55:18;;;;;;;2.13;1.90;;;;;;;12.12;59.57;95943.09;4965046;28;20038;-66
2023/03/21 08:57:45;;;;;;;1.83;1.60;;;;;;;12.21;61.15;95931.66;4967688;28;20035;-66
2023/03/21 09:00:13;;;;;;;2.17;1.80;;;;;;;12.28;60.64;95938.03;4967902;28;20027;-66
2023/03/21 09:02:43;;;;;;;1.25;1.25;;;;;;;12.27;60.93;95940.81;4967558;28;20479;-67
2023/03/21 09:05:10;;;;;;;1.63;1.50;;;;;;;12.30;60.52;95944.00;4969271;28;20074;-66
2023/03/21 09:07:37;;;;;;;1.40;1.30;;;;;;;11.98;62.83;95942.56;4970056;28;20046;-67
2023/03/21 09:10:09;;;;;;;1.58;1.15;;;;;;;11.99;61.15;95946.03;4968414;28;20098;-66
2023/03/21 09:12:34;;;;;;;2.60;1.42;;;;;;;12.08;59.91;95941.72;4967983;28;20064;-67
2023/03/21 09:15:01;;;;;;;1.30;1.30;;;;;;;12.23;60.42;95944.72;4968835;28;20147;-67
2023/03/21 09:17:28;;;;;;;1.70;1.60;;;;;;;12.45;59.53;95946.97;4966943;28;20495;-67
2023/03/21 09:19:53;;;;;;;1.35;1.35;;;;;;;12.36;59.06;95941.75;4970836;28;20178;-67
2023/03/21 09:22:22;;;;;;;1.58;1.20;;;;;;;12.77;58.23;95947.47;4951247;28;20042;-67
2023/03/21 09:24:48;;;;;;;4.03;1.20;;;;;;;13.12;56.17;95945.81;4969238;28;20448;-67
2023/03/21 09:27:16;;;;;;;1.63;1.50;;;;;;;13.44;55.99;95939.19;4969571;28;20419;-67
2023/03/21 09:29:43;;;;;;;1.20;1.20;;;;;;;13.44;52.95;95936.53;4966352;28;20057;-67
2023/03/21 09:32:10;;;;;;;2.70;1.42;;;;;;;13.48;54.24;95938.88;4967071;28;20035;-67
2023/03/21 09:34:38;;;;;;;1.80;1.70;;;;;;;13.46;56.04;95934.56;4969789;28;20122;-67
2023/03/21 09:37:08;;;;;;;1.50;1.50;;;;;;;13.50;56.37;95932.44;4951605;28;20041;-67
2023/03/21 09:39:35;;;;;;;1.90;1.80;;;;;;;13.41;58.03;95933.31;4959909;28;20462;-67
2023/03/21 09:42:04;;;;;;;1.85;1.75;;;;;;;13.13;60.29;95930.78;4968912;28;20027;-67
2023/03/21 09:44:53;;;;;;;2.10;1.60;;;;;;;13.29;57.83;95924.81;4963453;28;20035;-67
2023/03/21 09:47:33;;;;;;;1.70;1.60;;;;;;;14.00;54.99;95917.69;4964547;28;20027;-67
2023/03/21 09:50:15;;;;;;;1.90;1.75;;;;;;;14.09;52.57;95915.91;4970033;28;20111;-67
2023/03/21 09:53:06;;;;;;;1.73;1.63;;;;;;;14.02;54.59;95914.88;4968749;28;20053;-67
2023/03/21 09:55:38;;;;;;;2.22;2.00;;;;;;;14.25;54.71;95922.28;4969223;28;20479;-67
2023/03/21 09:58:03;;;;;;;5.18;2.70;;;;;;;14.49;54.07;95916.25;4968392;28;20073;-67
2023/03/21 10:00:42;;;;;;;8.90;5.88;;;;;;;14.77;51.80;95913.34;4968371;28;20043;-67
2023/03/21 10:03:33;;;;;;;3.65;3.15;;;;;;;15.24;49.85;95922.50;4969406;28;20026;-67
2023/03/21 10:06:04;;;;;;;3.78;2.33;;;;;;;14.67;51.88;95917.94;4951046;28;20039;-66
2023/03/21 10:08:40;;;;;;;1.67;1.58;;;;;;;14.36;52.87;95916.66;4967208;28;20499;-67
2023/03/21 10:11:15;;;;;;;1.58;1.48;;;;;;;14.62;51.24;95913.13;4971514;28;20456;-67
2023/03/21 10:13:47;;;;;;;1.73;1.60;;;;;;;14.54;52.08;95918.38;4971765;28;20039;-67
2023/03/21 10:16:26;;;;;;;2.40;2.20;;;;;;;15.01;50.13;95917.84;4967837;28;20058;-67
2023/03/21 10:18:53;;;;;;;3.45;2.80;;;;;;;15.05;52.07;95915.72;4970489;28;20027;-67
2023/03/21 10:21:22;;;;;;;3.33;1.92;;;;;;;15.55;48.64;95911.22;4966408;28;20031;-67
2023/03/21 10:23:50;;;;;;;2.25;2.05;;;;;;;15.75;47.47;95914.34;4971905;28;20094;-67
2023/03/21 10:26:18;;;;;;;3.35;1.95;;;;;;;15.59;49.34;95906.44;4972096;28;20034;-68
2023/03/21 10:28:45;;;;;;;1.88;1.77;;;;;;;15.88;49.85;95897.06;4965139;28;20039;-68
2023/03/21 10:31:16;;;;;;;1.75;1.65;;;;;;;16.35;48.31;95887.44;4971463;28;20090;-68
2023/03/21 10:33:45;;;;;;;1.58;1.55;;;;;;;16.30;46.41;95881.84;4969904;28;20075;-68
2023/03/21 10:36:24;;;;;;;1.83;1.73;;;;;;;16.57;47.66;95872.56;4966577;28;20399;-68
2023/03/21 10:38:54;;;;;;;2.15;1.90;;;;;;;16.97;46.72;95871.66;4969168;28;20150;-67
2023/03/21 10:41:20;;;;;;;1.85;1.75;;;;;;;17.47;46.70;95864.94;4968885;28;20081;-68
2023/03/21 10:43:49;;;;;;;2.78;1.52;;;;;;;17.63;44.64;95864.94;4950483;28;20034;-68
2023/03/21 10:46:22;;;;;;;1.30;1.30;;;;;;;17.55;44.07;95849.88;4965632;28;20076;-68
2023/03/21 10:48:52;;;;;;;2.38;1.52;;;;;;;17.97;42.06;95858.25;4967208;28;20030;-68
2023/03/21 10:51:26;;;;;;;1.42;1.33;;;;;;;18.30;43.73;95864.06;4949858;28;20022;-68
2023/03/21 10:53:57;;;;;;;2.97;1.15;;;;;;;18.94;41.20;95863.50;4968760;28;20077;-68
2023/03/21 10:56:29;;;;;;;1.10;1.05;;;;;;;19.18;38.14;95863.16;4967063;28;20038;-68
2023/03/21 10:58:58;;;;;;;1.23;1.05;;;;;;;19.22;38.19;95863.56;4966181;28;20050;-68
2023/03/21 11:01:35;;;;;;;1.02;1.00;;;;;;;19.34;34.63;95847.84;4962921;28;20125;-68
2023/03/21 11:04:13;;;;;;;1.65;1.13;;;;;;;19.63;37.52;95854.03;4964125;28;20042;-68
2023/03/21 11:06:42;;;;;;;3.60;1.60;;;;;;;19.73;38.33;95854.50;4967399;28;20021;-70
2023/03/21 11:09:16;;;;;;;1.77;1.63;;;;;;;19.43;39.93;95849.38;4965969;28;20490;-68
2023/03/21 11:12:04;;;;;;;1.50;1.40;;;;;;;19.95;37.22;95853.66;4950691;28;20070;-68
2023/03/21 11:14:47;;;;;;;3.20;1.58;;;;;;;19.40;40.04;95844.44;4966876;28;20085;-68
2023/03/21 11:17:15;;;;;;;1.58;1.48;;;;;;;19.80;36.93;95840.38;4961610;28;20027;-68
2023/03/21 11:19:48;;;;;;;1.13;1.13;;;;;;;19.97;36.41;95835.56;4963036;28;20026;-67
2023/03/21 11:22:17;;;;;;;1.35;1.25;;;;;;;20.32;35.90;95838.19;4970257;28;20038;-67
2023/03/21 11:24:49;;;;;;;6.75;1.20;;;;;;;19.86;34.89;95834.25;4966515;28;20058;-67
2023/03/21 11:27:14;;;;;;;3.90;1.23;;;;;;;19.22;38.23;95836.06;4970452;28;20027;-67
2023/03/21 11:29:46;;;;;;;3.42;1.30;;;;;;;19.34;37.49;95829.16;4962446;28;20023;-68
2023/03/21 11:32:15;;;;;;;3.70;1.50;;;;;;;19.02;40.17;95828.72;4967899;28;20692;-68
2023/03/21 11:34:46;;;;;;;2.67;1.40;;;;;;;18.82;39.03;95831.19;4965018;28;20090;-67
2023/03/21 11:37:25;;;;;;;2.17;1.88;;;;;;;19.00;38.36;95820.09;4959312;28;20086;-67
2023/03/21 11:39:55;;;;;;;3.22;1.70;;;;;;;18.80;38.25;95820.69;4963574;28;20113;-67
2023/03/21 11:42:27;;;;;;;1.98;1.30;;;;;;;19.01;39.49;95808.41;4965103;28;20037;-67
2023/03/21 11:45:14;;;;;;;4.47;1.77;;;;;;;19.17;39.14;95816.13;4962785;28;20034;-67
2023/03/21 11:47:40;;;;;;;2.33;1.63;;;;;;;18.42;41.10;95810.25;4970583;28;20054;-68